sensor_id;sensor_type;location;lat;lon;timestamp;P1;durP1;ratioP1;P2;durP2;ratioP2
48925;SDS011;39838;59.938;30.642;2023-05-07T00:00:00;9.70;;;5.15;;
48925;SDS011;39838;59.938;30.642;2023-05-07T00:02:33;12.20;;;5.35;;
48925;SDS011;39838;59.938;30.642;2023-05-07T00:05:00;11.00;;;5.20;;
48925;SDS011;39838;59.938;30.642;2023-05-07T00:07:30;10.98;;;5.38;;
48925;SDS011;39838;59.938;30.642;2023-05-07T00:09:58;14.90;;;5.68;;
48925;SDS011;39838;59.938;30.642;2023-05-07T00:12:26;12.13;;;5.65;;
48925;SDS011;39838;59.938;30.642;2023-05-07T00:14:56;13.43;;;5.72;;
48925;SDS011;39838;59.938;30.642;2023-05-07T00:17:23;11.98;;;5.50;;
48925;SDS011;39838;59.938;30.642;2023-05-07T00:19:50;8.88;;;5.38;;
48925;SDS011;39838;59.938;30.642;2023-05-07T00:22:18;8.60;;;5.40;;
48925;SDS011;39838;59.938;30.642;2023-05-07T00:24:45;10.02;;;5.13;;
48925;SDS011;39838;59.938;30.642;2023-05-07T00:27:12;11.23;;;5.28;;
48925;SDS011;39838;59.938;30.642;2023-05-07T00:29:40;9.45;;;4.68;;
48925;SDS011;39838;59.938;30.642;2023-05-07T00:32:08;9.52;;;5.22;;
48925;SDS011;39838;59.938;30.642;2023-05-07T00:34:35;10.38;;;5.97;;
48925;SDS011;39838;59.938;30.642;2023-05-07T00:37:02;9.88;;;5.78;;
48925;SDS011;39838;59.938;30.642;2023-05-07T00:39:29;12.00;;;6.38;;
48925;SDS011;39838;59.938;30.642;2023-05-07T00:41:56;12.80;;;6.75;;
48925;SDS011;39838;59.938;30.642;2023-05-07T00:44:23;10.75;;;6.63;;
48925;SDS011;39838;59.938;30.642;2023-05-07T00:46:52;12.23;;;6.75;;
48925;SDS011;39838;59.938;30.642;2023-05-07T00:49:20;11.98;;;6.85;;
48925;SDS011;39838;59.938;30.642;2023-05-07T00:51:48;13.98;;;7.43;;
48925;SDS011;39838;59.938;30.642;2023-05-07T00:54:16;12.70;;;7.47;;
48925;SDS011;39838;59.938;30.642;2023-05-07T00:56:44;14.98;;;6.78;;
48925;SDS011;39838;59.938;30.642;2023-05-07T00:59:12;12.20;;;7.13;;
48925;SDS011;39838;59.938;30.642;2023-05-07T01:01:39;15.85;;;7.15;;
48925;SDS011;39838;59.938;30.642;2023-05-07T01:04:08;11.57;;;6.97;;
48925;SDS011;39838;59.938;30.642;2023-05-07T01:06:35;11.60;;;6.90;;
48925;SDS011;39838;59.938;30.642;2023-05-07T01:09:02;11.77;;;6.72;;
48925;SDS011;39838;59.938;30.642;2023-05-07T01:11:30;13.65;;;6.90;;
48925;SDS011;39838;59.938;30.642;2023-05-07T01:13:57;12.25;;;7.10;;
48925;SDS011;39838;59.938;30.642;2023-05-07T01:16:26;12.50;;;6.88;;
48925;SDS011;39838;59.938;30.642;2023-05-07T01:18:53;13.93;;;7.00;;
48925;SDS011;39838;59.938;30.642;2023-05-07T01:21:22;10.68;;;6.72;;
48925;SDS011;39838;59.938;30.642;2023-05-07T01:23:53;13.43;;;7.78;;
48925;SDS011;39838;59.938;30.642;2023-05-07T01:26:22;15.63;;;7.47;;
48925;SDS011;39838;59.938;30.642;2023-05-07T01:28:49;11.65;;;7.05;;
48925;SDS011;39838;59.938;30.642;2023-05-07T01:31:16;12.88;;;6.70;;
48925;SDS011;39838;59.938;30.642;2023-05-07T01:33:44;11.93;;;6.80;;
48925;SDS011;39838;59.938;30.642;2023-05-07T01:36:14;11.77;;;6.30;;
48925;SDS011;39838;59.938;30.642;2023-05-07T01:38:43;12.38;;;6.70;;
48925;SDS011;39838;59.938;30.642;2023-05-07T01:41:13;11.30;;;6.20;;
48925;SDS011;39838;59.938;30.642;2023-05-07T01:43:40;12.85;;;6.70;;
48925;SDS011;39838;59.938;30.642;2023-05-07T01:46:08;12.23;;;6.22;;
48925;SDS011;39838;59.938;30.642;2023-05-07T01:48:37;11.85;;;6.25;;
48925;SDS011;39838;59.938;30.642;2023-05-07T01:51:05;9.75;;;5.90;;
48925;SDS011;39838;59.938;30.642;2023-05-07T01:53:35;14.23;;;5.97;;
48925;SDS011;39838;59.938;30.642;2023-05-07T01:56:03;10.98;;;5.85;;
48925;SDS011;39838;59.938;30.642;2023-05-07T01:58:32;8.73;;;5.35;;
48925;SDS011;39838;59.938;30.642;2023-05-07T02:00:59;11.75;;;5.88;;
48925;SDS011;39838;59.938;30.642;2023-05-07T02:03:26;8.70;;;5.28;;
48925;SDS011;39838;59.938;30.642;2023-05-07T02:05:54;10.57;;;5.10;;
48925;SDS011;39838;59.938;30.642;2023-05-07T02:08:21;10.65;;;4.97;;
48925;SDS011;39838;59.938;30.642;2023-05-07T02:10:48;12.25;;;5.32;;
48925;SDS011;39838;59.938;30.642;2023-05-07T02:13:16;15.48;;;5.55;;
48925;SDS011;39838;59.938;30.642;2023-05-07T02:15:46;8.55;;;4.95;;
48925;SDS011;39838;59.938;30.642;2023-05-07T02:18:16;8.82;;;5.00;;
48925;SDS011;39838;59.938;30.642;2023-05-07T02:20:44;7.03;;;4.38;;
48925;SDS011;39838;59.938;30.642;2023-05-07T02:23:11;7.97;;;4.53;;
48925;SDS011;39838;59.938;30.642;2023-05-07T02:25:38;11.57;;;4.80;;
48925;SDS011;39838;59.938;30.642;2023-05-07T02:28:05;7.90;;;4.45;;
48925;SDS011;39838;59.938;30.642;2023-05-07T02:30:32;7.28;;;4.28;;
48925;SDS011;39838;59.938;30.642;2023-05-07T02:33:01;9.07;;;4.50;;
48925;SDS011;39838;59.938;30.642;2023-05-07T02:35:35;7.95;;;4.30;;
48925;SDS011;39838;59.938;30.642;2023-05-07T02:38:02;11.00;;;4.85;;
48925;SDS011;39838;59.938;30.642;2023-05-07T02:40:29;10.82;;;4.75;;
48925;SDS011;39838;59.938;30.642;2023-05-07T02:42:58;7.57;;;4.30;;
48925;SDS011;39838;59.938;30.642;2023-05-07T02:45:26;8.38;;;4.60;;
48925;SDS011;39838;59.938;30.642;2023-05-07T02:47:53;9.75;;;5.68;;
48925;SDS011;39838;59.938;30.642;2023-05-07T02:50:20;11.32;;;6.35;;
48925;SDS011;39838;59.938;30.642;2023-05-07T02:52:49;18.90;;;11.32;;
48925;SDS011;39838;59.938;30.642;2023-05-07T02:55:16;7.60;;;4.35;;
48925;SDS011;39838;59.938;30.642;2023-05-07T02:57:43;7.55;;;3.88;;
48925;SDS011;39838;59.938;30.642;2023-05-07T03:00:12;6.32;;;4.07;;
48925;SDS011;39838;59.938;30.642;2023-05-07T03:02:41;7.45;;;4.30;;
48925;SDS011;39838;59.938;30.642;2023-05-07T03:05:08;11.77;;;4.28;;
48925;SDS011;39838;59.938;30.642;2023-05-07T03:07:36;5.75;;;3.80;;
48925;SDS011;39838;59.938;30.642;2023-05-07T03:10:05;7.38;;;3.83;;
48925;SDS011;39838;59.938;30.642;2023-05-07T03:12:33;5.60;;;3.60;;
48925;SDS011;39838;59.938;30.642;2023-05-07T03:15:00;6.82;;;4.05;;
48925;SDS011;39838;59.938;30.642;2023-05-07T03:17:29;7.05;;;4.22;;
48925;SDS011;39838;59.938;30.642;2023-05-07T03:19:56;7.28;;;4.13;;
48925;SDS011;39838;59.938;30.642;2023-05-07T03:22:23;8.82;;;4.55;;
48925;SDS011;39838;59.938;30.642;2023-05-07T03:24:51;12.82;;;5.10;;
48925;SDS011;39838;59.938;30.642;2023-05-07T03:27:19;8.43;;;4.63;;
48925;SDS011;39838;59.938;30.642;2023-05-07T03:29:46;9.65;;;4.80;;
48925;SDS011;39838;59.938;30.642;2023-05-07T03:32:13;6.55;;;4.32;;
48925;SDS011;39838;59.938;30.642;2023-05-07T03:34:41;10.18;;;4.43;;
48925;SDS011;39838;59.938;30.642;2023-05-07T03:37:08;7.20;;;4.20;;
48925;SDS011;39838;59.938;30.642;2023-05-07T03:39:35;6.70;;;4.38;;
48925;SDS011;39838;59.938;30.642;2023-05-07T03:42:03;6.22;;;4.10;;
48925;SDS011;39838;59.938;30.642;2023-05-07T03:44:31;6.93;;;4.18;;
48925;SDS011;39838;59.938;30.642;2023-05-07T03:46:59;8.13;;;4.68;;
48925;SDS011;39838;59.938;30.642;2023-05-07T03:49:26;6.07;;;3.80;;
48925;SDS011;39838;59.938;30.642;2023-05-07T03:51:53;5.82;;;3.95;;
48925;SDS011;39838;59.938;30.642;2023-05-07T03:54:20;6.00;;;3.67;;
48925;SDS011;39838;59.938;30.642;2023-05-07T03:56:48;6.00;;;3.90;;
48925;SDS011;39838;59.938;30.642;2023-05-07T03:59:15;8.32;;;4.45;;
48925;SDS011;39838;59.938;30.642;2023-05-07T04:01:43;11.07;;;5.35;;
48925;SDS011;39838;59.938;30.642;2023-05-07T04:04:10;10.00;;;4.97;;
48925;SDS011;39838;59.938;30.642;2023-05-07T04:06:38;6.68;;;4.45;;
48925;SDS011;39838;59.938;30.642;2023-05-07T04:09:05;9.13;;;4.20;;
48925;SDS011;39838;59.938;30.642;2023-05-07T04:11:32;6.25;;;3.70;;
48925;SDS011;39838;59.938;30.642;2023-05-07T04:13:59;6.55;;;3.53;;
48925;SDS011;39838;59.938;30.642;2023-05-07T04:16:26;9.90;;;3.78;;
48925;SDS011;39838;59.938;30.642;2023-05-07T04:18:55;6.30;;;3.60;;
48925;SDS011;39838;59.938;30.642;2023-05-07T04:21:22;8.20;;;3.80;;
48925;SDS011;39838;59.938;30.642;2023-05-07T04:23:51;7.43;;;3.80;;
48925;SDS011;39838;59.938;30.642;2023-05-07T04:26:18;4.53;;;3.33;;
48925;SDS011;39838;59.938;30.642;2023-05-07T04:28:46;5.85;;;3.15;;
48925;SDS011;39838;59.938;30.642;2023-05-07T04:31:13;6.65;;;3.50;;
48925;SDS011;39838;59.938;30.642;2023-05-07T04:33:41;5.25;;;3.33;;
48925;SDS011;39838;59.938;30.642;2023-05-07T04:36:09;10.50;;;3.42;;
48925;SDS011;39838;59.938;30.642;2023-05-07T04:38:37;5.50;;;3.22;;
48925;SDS011;39838;59.938;30.642;2023-05-07T04:41:04;7.55;;;3.92;;
48925;SDS011;39838;59.938;30.642;2023-05-07T04:43:32;8.55;;;4.10;;
48925;SDS011;39838;59.938;30.642;2023-05-07T04:45:59;5.22;;;3.50;;
48925;SDS011;39838;59.938;30.642;2023-05-07T04:48:27;6.20;;;3.78;;
48925;SDS011;39838;59.938;30.642;2023-05-07T04:50:54;5.07;;;3.40;;
48925;SDS011;39838;59.938;30.642;2023-05-07T04:53:22;5.93;;;3.30;;
48925;SDS011;39838;59.938;30.642;2023-05-07T04:55:54;7.18;;;3.53;;
48925;SDS011;39838;59.938;30.642;2023-05-07T04:58:23;5.82;;;3.15;;
48925;SDS011;39838;59.938;30.642;2023-05-07T05:00:50;6.55;;;3.38;;
48925;SDS011;39838;59.938;30.642;2023-05-07T05:03:17;8.25;;;3.10;;
48925;SDS011;39838;59.938;30.642;2023-05-07T05:05:44;9.95;;;3.50;;
48925;SDS011;39838;59.938;30.642;2023-05-07T05:08:11;7.63;;;3.28;;
48925;SDS011;39838;59.938;30.642;2023-05-07T05:10:40;4.55;;;3.10;;
48925;SDS011;39838;59.938;30.642;2023-05-07T05:13:08;6.60;;;3.42;;
48925;SDS011;39838;59.938;30.642;2023-05-07T05:15:38;5.88;;;3.75;;
48925;SDS011;39838;59.938;30.642;2023-05-07T05:18:05;9.55;;;3.67;;
48925;SDS011;39838;59.938;30.642;2023-05-07T05:20:32;5.78;;;3.17;;
48925;SDS011;39838;59.938;30.642;2023-05-07T05:22:59;4.90;;;3.20;;
48925;SDS011;39838;59.938;30.642;2023-05-07T05:25:26;6.78;;;3.58;;
48925;SDS011;39838;59.938;30.642;2023-05-07T05:27:55;7.30;;;3.63;;
48925;SDS011;39838;59.938;30.642;2023-05-07T05:30:22;5.10;;;2.85;;
48925;SDS011;39838;59.938;30.642;2023-05-07T05:32:49;4.78;;;3.03;;
48925;SDS011;39838;59.938;30.642;2023-05-07T05:35:16;5.05;;;2.90;;
48925;SDS011;39838;59.938;30.642;2023-05-07T05:37:44;7.53;;;3.10;;
48925;SDS011;39838;59.938;30.642;2023-05-07T05:40:11;5.60;;;2.90;;
48925;SDS011;39838;59.938;30.642;2023-05-07T05:42:38;5.13;;;2.60;;
48925;SDS011;39838;59.938;30.642;2023-05-07T05:45:08;3.88;;;2.60;;
48925;SDS011;39838;59.938;30.642;2023-05-07T05:47:36;3.90;;;2.75;;
48925;SDS011;39838;59.938;30.642;2023-05-07T05:50:04;4.38;;;2.70;;
48925;SDS011;39838;59.938;30.642;2023-05-07T05:52:32;5.65;;;2.65;;
48925;SDS011;39838;59.938;30.642;2023-05-07T05:55:00;4.53;;;2.80;;
48925;SDS011;39838;59.938;30.642;2023-05-07T05:57:30;5.68;;;2.80;;
48925;SDS011;39838;59.938;30.642;2023-05-07T05:59:58;5.05;;;3.00;;
48925;SDS011;39838;59.938;30.642;2023-05-07T06:02:27;7.45;;;3.00;;
48925;SDS011;39838;59.938;30.642;2023-05-07T06:04:54;6.63;;;3.15;;
48925;SDS011;39838;59.938;30.642;2023-05-07T06:07:21;9.20;;;3.35;;
48925;SDS011;39838;59.938;30.642;2023-05-07T06:09:48;6.10;;;2.88;;
48925;SDS011;39838;59.938;30.642;2023-05-07T06:12:15;5.28;;;2.70;;
48925;SDS011;39838;59.938;30.642;2023-05-07T06:14:42;5.97;;;2.63;;
48925;SDS011;39838;59.938;30.642;2023-05-07T06:17:09;7.50;;;2.45;;
48925;SDS011;39838;59.938;30.642;2023-05-07T06:19:38;6.20;;;2.65;;
48925;SDS011;39838;59.938;30.642;2023-05-07T06:22:05;3.92;;;2.45;;
48925;SDS011;39838;59.938;30.642;2023-05-07T06:24:32;4.10;;;2.40;;
48925;SDS011;39838;59.938;30.642;2023-05-07T06:27:00;3.30;;;2.38;;
48925;SDS011;39838;59.938;30.642;2023-05-07T06:29:27;5.22;;;2.92;;
48925;SDS011;39838;59.938;30.642;2023-05-07T06:31:56;3.45;;;2.38;;
48925;SDS011;39838;59.938;30.642;2023-05-07T06:34:33;5.35;;;2.40;;
48925;SDS011;39838;59.938;30.642;2023-05-07T06:37:02;4.75;;;2.40;;
48925;SDS011;39838;59.938;30.642;2023-05-07T06:39:29;6.47;;;2.90;;
48925;SDS011;39838;59.938;30.642;2023-05-07T06:41:57;4.20;;;2.65;;
48925;SDS011;39838;59.938;30.642;2023-05-07T06:44:24;6.57;;;3.20;;
48925;SDS011;39838;59.938;30.642;2023-05-07T06:46:51;4.90;;;2.85;;
48925;SDS011;39838;59.938;30.642;2023-05-07T06:49:18;3.70;;;2.70;;
48925;SDS011;39838;59.938;30.642;2023-05-07T06:51:46;7.55;;;2.67;;
48925;SDS011;39838;59.938;30.642;2023-05-07T06:54:14;6.68;;;2.67;;
48925;SDS011;39838;59.938;30.642;2023-05-07T06:56:41;7.32;;;2.97;;
48925;SDS011;39838;59.938;30.642;2023-05-07T06:59:09;4.60;;;3.00;;
48925;SDS011;39838;59.938;30.642;2023-05-07T07:01:36;6.22;;;3.03;;
48925;SDS011;39838;59.938;30.642;2023-05-07T07:04:03;5.95;;;2.78;;
48925;SDS011;39838;59.938;30.642;2023-05-07T07:06:30;6.32;;;2.78;;
48925;SDS011;39838;59.938;30.642;2023-05-07T07:08:58;4.05;;;2.75;;
48925;SDS011;39838;59.938;30.642;2023-05-07T07:11:27;5.63;;;2.85;;
48925;SDS011;39838;59.938;30.642;2023-05-07T07:13:54;5.38;;;2.53;;
48925;SDS011;39838;59.938;30.642;2023-05-07T07:16:22;5.38;;;3.00;;
48925;SDS011;39838;59.938;30.642;2023-05-07T07:18:49;3.58;;;2.47;;
48925;SDS011;39838;59.938;30.642;2023-05-07T07:21:16;5.80;;;2.75;;
48925;SDS011;39838;59.938;30.642;2023-05-07T07:23:43;6.85;;;2.63;;
48925;SDS011;39838;59.938;30.642;2023-05-07T07:26:11;5.45;;;2.78;;
48925;SDS011;39838;59.938;30.642;2023-05-07T07:28:48;4.38;;;2.40;;
48925;SDS011;39838;59.938;30.642;2023-05-07T07:31:15;6.60;;;2.55;;
48925;SDS011;39838;59.938;30.642;2023-05-07T07:33:43;6.93;;;3.03;;
48925;SDS011;39838;59.938;30.642;2023-05-07T07:36:10;4.50;;;2.30;;
48925;SDS011;39838;59.938;30.642;2023-05-07T07:38:37;9.07;;;2.80;;
48925;SDS011;39838;59.938;30.642;2023-05-07T07:41:04;3.45;;;2.15;;
48925;SDS011;39838;59.938;30.642;2023-05-07T07:43:31;2.38;;;1.80;;
48925;SDS011;39838;59.938;30.642;2023-05-07T07:46:00;2.95;;;2.15;;
48925;SDS011;39838;59.938;30.642;2023-05-07T07:48:27;3.22;;;2.40;;
48925;SDS011;39838;59.938;30.642;2023-05-07T07:50:54;4.15;;;2.50;;
48925;SDS011;39838;59.938;30.642;2023-05-07T07:53:22;4.95;;;2.20;;
48925;SDS011;39838;59.938;30.642;2023-05-07T07:55:49;3.47;;;2.30;;
48925;SDS011;39838;59.938;30.642;2023-05-07T07:58:16;3.47;;;2.40;;
48925;SDS011;39838;59.938;30.642;2023-05-07T08:00:43;4.80;;;2.60;;
48925;SDS011;39838;59.938;30.642;2023-05-07T08:03:12;4.18;;;2.60;;
48925;SDS011;39838;59.938;30.642;2023-05-07T08:05:39;7.22;;;2.60;;
48925;SDS011;39838;59.938;30.642;2023-05-07T08:08:06;6.03;;;2.85;;
48925;SDS011;39838;59.938;30.642;2023-05-07T08:10:34;6.72;;;3.10;;
48925;SDS011;39838;59.938;30.642;2023-05-07T08:13:03;4.35;;;2.88;;
48925;SDS011;39838;59.938;30.642;2023-05-07T08:15:31;4.15;;;2.30;;
48925;SDS011;39838;59.938;30.642;2023-05-07T08:17:58;6.35;;;2.63;;
48925;SDS011;39838;59.938;30.642;2023-05-07T08:20:27;3.60;;;2.40;;
48925;SDS011;39838;59.938;30.642;2023-05-07T08:22:55;3.58;;;2.40;;
48925;SDS011;39838;59.938;30.642;2023-05-07T08:25:22;4.30;;;2.70;;
48925;SDS011;39838;59.938;30.642;2023-05-07T08:27:50;5.40;;;2.50;;
48925;SDS011;39838;59.938;30.642;2023-05-07T08:30:17;5.20;;;2.72;;
48925;SDS011;39838;59.938;30.642;2023-05-07T08:32:44;6.03;;;2.38;;
48925;SDS011;39838;59.938;30.642;2023-05-07T08:35:11;5.00;;;2.22;;
48925;SDS011;39838;59.938;30.642;2023-05-07T08:37:40;4.60;;;2.42;;
48925;SDS011;39838;59.938;30.642;2023-05-07T08:40:07;3.97;;;2.22;;
48925;SDS011;39838;59.938;30.642;2023-05-07T08:42:35;7.05;;;2.45;;
48925;SDS011;39838;59.938;30.642;2023-05-07T08:45:04;6.43;;;2.40;;
48925;SDS011;39838;59.938;30.642;2023-05-07T08:47:38;5.45;;;2.40;;
48925;SDS011;39838;59.938;30.642;2023-05-07T08:50:10;5.10;;;2.55;;
48925;SDS011;39838;59.938;30.642;2023-05-07T08:52:40;5.43;;;2.28;;
48925;SDS011;39838;59.938;30.642;2023-05-07T08:55:08;4.22;;;2.30;;
48925;SDS011;39838;59.938;30.642;2023-05-07T08:57:36;8.68;;;2.47;;
48925;SDS011;39838;59.938;30.642;2023-05-07T09:00:03;6.35;;;2.42;;
48925;SDS011;39838;59.938;30.642;2023-05-07T09:02:32;4.75;;;2.30;;
48925;SDS011;39838;59.938;30.642;2023-05-07T09:05:01;3.95;;;2.15;;
48925;SDS011;39838;59.938;30.642;2023-05-07T09:07:30;6.50;;;2.65;;
48925;SDS011;39838;59.938;30.642;2023-05-07T09:09:58;4.53;;;2.63;;
48925;SDS011;39838;59.938;30.642;2023-05-07T09:12:30;5.70;;;2.38;;
48925;SDS011;39838;59.938;30.642;2023-05-07T09:14:57;4.40;;;2.80;;
48925;SDS011;39838;59.938;30.642;2023-05-07T09:17:26;5.10;;;2.42;;
48925;SDS011;39838;59.938;30.642;2023-05-07T09:19:53;10.95;;;2.85;;
48925;SDS011;39838;59.938;30.642;2023-05-07T09:22:20;9.20;;;3.05;;
48925;SDS011;39838;59.938;30.642;2023-05-07T09:24:48;3.72;;;2.55;;
48925;SDS011;39838;59.938;30.642;2023-05-07T09:27:17;5.20;;;3.50;;
48925;SDS011;39838;59.938;30.642;2023-05-07T09:29:45;4.97;;;3.08;;
48925;SDS011;39838;59.938;30.642;2023-05-07T09:32:12;6.40;;;2.60;;
48925;SDS011;39838;59.938;30.642;2023-05-07T09:34:41;4.15;;;2.38;;
48925;SDS011;39838;59.938;30.642;2023-05-07T09:37:10;4.90;;;2.40;;
48925;SDS011;39838;59.938;30.642;2023-05-07T09:39:39;5.75;;;2.30;;
48925;SDS011;39838;59.938;30.642;2023-05-07T09:42:07;3.70;;;2.20;;
48925;SDS011;39838;59.938;30.642;2023-05-07T09:44:36;4.95;;;2.40;;
48925;SDS011;39838;59.938;30.642;2023-05-07T09:47:04;7.28;;;2.72;;
48925;SDS011;39838;59.938;30.642;2023-05-07T09:49:34;4.20;;;2.38;;
48925;SDS011;39838;59.938;30.642;2023-05-07T09:52:03;5.38;;;2.70;;
48925;SDS011;39838;59.938;30.642;2023-05-07T09:54:32;4.97;;;2.70;;
48925;SDS011;39838;59.938;30.642;2023-05-07T09:57:00;10.52;;;3.38;;
48925;SDS011;39838;59.938;30.642;2023-05-07T09:59:29;10.32;;;2.85;;
48925;SDS011;39838;59.938;30.642;2023-05-07T10:01:59;8.63;;;2.60;;
48925;SDS011;39838;59.938;30.642;2023-05-07T10:04:28;4.30;;;2.00;;
48925;SDS011;39838;59.938;30.642;2023-05-07T10:06:56;4.65;;;2.40;;
48925;SDS011;39838;59.938;30.642;2023-05-07T10:09:24;6.60;;;2.53;;
48925;SDS011;39838;59.938;30.642;2023-05-07T10:11:52;6.38;;;2.70;;
48925;SDS011;39838;59.938;30.642;2023-05-07T10:14:21;5.53;;;2.10;;
48925;SDS011;39838;59.938;30.642;2023-05-07T10:16:48;4.28;;;1.70;;
48925;SDS011;39838;59.938;30.642;2023-05-07T10:19:17;10.30;;;1.95;;
48925;SDS011;39838;59.938;30.642;2023-05-07T10:21:48;6.82;;;2.10;;
48925;SDS011;39838;59.938;30.642;2023-05-07T10:24:21;3.65;;;1.80;;
48925;SDS011;39838;59.938;30.642;2023-05-07T10:26:53;3.95;;;2.10;;
48925;SDS011;39838;59.938;30.642;2023-05-07T10:29:25;5.30;;;2.10;;
48925;SDS011;39838;59.938;30.642;2023-05-07T10:32:01;6.60;;;2.55;;
48925;SDS011;39838;59.938;30.642;2023-05-07T10:34:41;5.53;;;2.08;;
48925;SDS011;39838;59.938;30.642;2023-05-07T10:37:12;6.22;;;1.88;;
48925;SDS011;39838;59.938;30.642;2023-05-07T10:39:40;6.07;;;1.75;;
48925;SDS011;39838;59.938;30.642;2023-05-07T10:42:08;6.53;;;2.08;;
48925;SDS011;39838;59.938;30.642;2023-05-07T10:44:35;6.07;;;1.90;;
48925;SDS011;39838;59.938;30.642;2023-05-07T10:47:04;7.30;;;1.80;;
48925;SDS011;39838;59.938;30.642;2023-05-07T10:49:34;8.52;;;1.98;;
48925;SDS011;39838;59.938;30.642;2023-05-07T10:52:13;3.20;;;1.90;;
48925;SDS011;39838;59.938;30.642;2023-05-07T10:54:42;3.65;;;1.80;;
48925;SDS011;39838;59.938;30.642;2023-05-07T11:00:02;7.40;;;2.15;;
48925;SDS011;39838;59.938;30.642;2023-05-07T11:05:33;4.97;;;2.10;;
48925;SDS011;39838;59.938;30.642;2023-05-07T11:08:02;5.80;;;1.90;;
48925;SDS011;39838;59.938;30.642;2023-05-07T11:10:50;6.78;;;2.15;;
48925;SDS011;39838;59.938;30.642;2023-05-07T11:13:18;8.20;;;1.90;;
48925;SDS011;39838;59.938;30.642;2023-05-07T11:16:15;3.63;;;1.95;;
48925;SDS011;39838;59.938;30.642;2023-05-07T11:18:47;8.15;;;2.20;;
48925;SDS011;39838;59.938;30.642;2023-05-07T11:21:34;8.63;;;2.85;;
48925;SDS011;39838;59.938;30.642;2023-05-07T11:24:04;5.03;;;2.30;;
48925;SDS011;39838;59.938;30.642;2023-05-07T11:26:41;3.50;;;1.85;;
48925;SDS011;39838;59.938;30.642;2023-05-07T11:29:11;5.38;;;2.00;;
48925;SDS011;39838;59.938;30.642;2023-05-07T11:31:40;6.40;;;2.20;;
48925;SDS011;39838;59.938;30.642;2023-05-07T11:34:07;4.82;;;2.03;;
48925;SDS011;39838;59.938;30.642;2023-05-07T11:36:35;4.28;;;1.90;;
48925;SDS011;39838;59.938;30.642;2023-05-07T11:41:53;4.43;;;2.07;;
48925;SDS011;39838;59.938;30.642;2023-05-07T11:44:20;5.35;;;2.05;;
48925;SDS011;39838;59.938;30.642;2023-05-07T11:46:48;5.47;;;2.00;;
48925;SDS011;39838;59.938;30.642;2023-05-07T11:49:15;3.95;;;1.88;;
48925;SDS011;39838;59.938;30.642;2023-05-07T11:51:43;5.28;;;2.05;;
48925;SDS011;39838;59.938;30.642;2023-05-07T11:54:11;5.55;;;2.40;;
48925;SDS011;39838;59.938;30.642;2023-05-07T11:56:44;6.05;;;2.22;;
48925;SDS011;39838;59.938;30.642;2023-05-07T11:59:17;8.50;;;2.80;;
48925;SDS011;39838;59.938;30.642;2023-05-07T12:01:45;5.30;;;2.20;;
48925;SDS011;39838;59.938;30.642;2023-05-07T12:04:13;4.55;;;1.60;;
48925;SDS011;39838;59.938;30.642;2023-05-07T12:06:43;5.28;;;1.80;;
48925;SDS011;39838;59.938;30.642;2023-05-07T12:09:10;2.22;;;1.67;;
48925;SDS011;39838;59.938;30.642;2023-05-07T12:11:38;4.20;;;1.90;;
48925;SDS011;39838;59.938;30.642;2023-05-07T12:14:07;3.42;;;2.10;;
48925;SDS011;39838;59.938;30.642;2023-05-07T12:16:34;4.45;;;2.08;;
48925;SDS011;39838;59.938;30.642;2023-05-07T12:19:02;9.95;;;2.20;;
48925;SDS011;39838;59.938;30.642;2023-05-07T12:21:29;8.18;;;2.30;;
48925;SDS011;39838;59.938;30.642;2023-05-07T12:23:56;7.35;;;2.00;;
48925;SDS011;39838;59.938;30.642;2023-05-07T12:26:23;8.50;;;3.05;;
48925;SDS011;39838;59.938;30.642;2023-05-07T12:28:51;6.15;;;3.08;;
48925;SDS011;39838;59.938;30.642;2023-05-07T12:31:20;4.30;;;2.00;;
48925;SDS011;39838;59.938;30.642;2023-05-07T12:33:47;6.28;;;2.22;;
48925;SDS011;39838;59.938;30.642;2023-05-07T12:36:15;8.40;;;2.17;;
48925;SDS011;39838;59.938;30.642;2023-05-07T12:38:42;5.47;;;2.50;;
48925;SDS011;39838;59.938;30.642;2023-05-07T12:41:10;5.25;;;2.30;;
48925;SDS011;39838;59.938;30.642;2023-05-07T12:43:37;4.95;;;2.40;;
48925;SDS011;39838;59.938;30.642;2023-05-07T12:46:06;6.20;;;2.53;;
48925;SDS011;39838;59.938;30.642;2023-05-07T12:48:37;3.25;;;1.90;;
48925;SDS011;39838;59.938;30.642;2023-05-07T12:51:05;4.72;;;2.60;;
48925;SDS011;39838;59.938;30.642;2023-05-07T12:53:39;5.47;;;2.58;;
48925;SDS011;39838;59.938;30.642;2023-05-07T12:56:07;2.78;;;2.10;;
48925;SDS011;39838;59.938;30.642;2023-05-07T12:58:35;6.40;;;3.08;;
48925;SDS011;39838;59.938;30.642;2023-05-07T13:01:04;3.28;;;1.98;;
48925;SDS011;39838;59.938;30.642;2023-05-07T13:03:32;6.95;;;2.13;;
48925;SDS011;39838;59.938;30.642;2023-05-07T13:06:02;2.63;;;1.92;;
48925;SDS011;39838;59.938;30.642;2023-05-07T13:08:32;6.35;;;2.53;;
48925;SDS011;39838;59.938;30.642;2023-05-07T13:11:02;3.00;;;1.90;;
48925;SDS011;39838;59.938;30.642;2023-05-07T13:13:30;7.25;;;2.28;;
48925;SDS011;39838;59.938;30.642;2023-05-07T13:15:57;4.97;;;2.25;;
48925;SDS011;39838;59.938;30.642;2023-05-07T13:18:25;6.15;;;2.30;;
48925;SDS011;39838;59.938;30.642;2023-05-07T13:20:53;3.08;;;2.30;;
48925;SDS011;39838;59.938;30.642;2023-05-07T13:23:22;3.60;;;2.05;;
48925;SDS011;39838;59.938;30.642;2023-05-07T13:25:49;4.28;;;2.22;;
48925;SDS011;39838;59.938;30.642;2023-05-07T13:28:17;4.20;;;2.10;;
48925;SDS011;39838;59.938;30.642;2023-05-07T13:30:45;2.88;;;2.10;;
48925;SDS011;39838;59.938;30.642;2023-05-07T13:33:13;7.15;;;2.85;;
48925;SDS011;39838;59.938;30.642;2023-05-07T13:35:40;9.38;;;2.90;;
48925;SDS011;39838;59.938;30.642;2023-05-07T13:38:08;6.22;;;2.80;;
48925;SDS011;39838;59.938;30.642;2023-05-07T13:40:36;4.28;;;2.22;;
48925;SDS011;39838;59.938;30.642;2023-05-07T13:43:05;4.25;;;2.22;;
48925;SDS011;39838;59.938;30.642;2023-05-07T13:45:33;3.05;;;2.00;;
48925;SDS011;39838;59.938;30.642;2023-05-07T13:48:00;2.55;;;1.92;;
48925;SDS011;39838;59.938;30.642;2023-05-07T13:50:27;4.03;;;1.90;;
48925;SDS011;39838;59.938;30.642;2023-05-07T13:52:55;5.15;;;2.30;;
48925;SDS011;39838;59.938;30.642;2023-05-07T13:55:23;6.13;;;3.20;;
48925;SDS011;39838;59.938;30.642;2023-05-07T13:57:56;3.35;;;2.30;;
48925;SDS011;39838;59.938;30.642;2023-05-07T14:00:23;2.80;;;2.00;;
48925;SDS011;39838;59.938;30.642;2023-05-07T14:02:51;4.20;;;2.30;;
48925;SDS011;39838;59.938;30.642;2023-05-07T14:05:18;3.85;;;2.30;;
48925;SDS011;39838;59.938;30.642;2023-05-07T14:07:46;5.57;;;2.20;;
48925;SDS011;39838;59.938;30.642;2023-05-07T14:10:14;5.60;;;1.90;;
48925;SDS011;39838;59.938;30.642;2023-05-07T14:12:41;9.40;;;2.35;;
48925;SDS011;39838;59.938;30.642;2023-05-07T14:15:10;7.55;;;2.17;;
48925;SDS011;39838;59.938;30.642;2023-05-07T14:17:37;3.35;;;1.95;;
48925;SDS011;39838;59.938;30.642;2023-05-07T14:20:05;3.97;;;2.00;;
48925;SDS011;39838;59.938;30.642;2023-05-07T14:22:33;4.03;;;2.40;;
48925;SDS011;39838;59.938;30.642;2023-05-07T14:25:00;6.35;;;2.03;;
48925;SDS011;39838;59.938;30.642;2023-05-07T14:27:31;7.55;;;2.13;;
48925;SDS011;39838;59.938;30.642;2023-05-07T14:29:59;3.40;;;2.00;;
48925;SDS011;39838;59.938;30.642;2023-05-07T14:32:27;3.22;;;1.77;;
48925;SDS011;39838;59.938;30.642;2023-05-07T14:34:55;3.60;;;2.00;;
48925;SDS011;39838;59.938;30.642;2023-05-07T14:37:22;3.70;;;1.90;;
48925;SDS011;39838;59.938;30.642;2023-05-07T14:39:49;6.10;;;2.35;;
48925;SDS011;39838;59.938;30.642;2023-05-07T14:42:16;3.65;;;1.95;;
48925;SDS011;39838;59.938;30.642;2023-05-07T14:44:44;6.22;;;2.17;;
48925;SDS011;39838;59.938;30.642;2023-05-07T14:47:12;6.78;;;2.45;;